sensor_id;sensor_type;location;lat;lon;timestamp;P1;durP1;ratioP1;P2;durP2;ratioP2
32613;SDS011;19031;51.400;6.770;2024-01-11T00:00:44;54.42;;;23.33;;
32613;SDS011;19031;51.400;6.770;2024-01-11T00:03:09;51.88;;;22.73;;
32613;SDS011;19031;51.400;6.770;2024-01-11T00:05:35;45.95;;;23.52;;
32613;SDS011;19031;51.400;6.770;2024-01-11T00:08:01;56.65;;;23.95;;
32613;SDS011;19031;51.400;6.770;2024-01-11T00:10:26;64.50;;;25.88;;
32613;SDS011;19031;51.400;6.770;2024-01-11T00:12:52;54.53;;;24.17;;
32613;SDS011;19031;51.400;6.770;2024-01-11T00:15:18;54.85;;;24.88;;
32613;SDS011;19031;51.400;6.770;2024-01-11T00:17:43;55.03;;;24.77;;
32613;SDS011;19031;51.400;6.770;2024-01-11T00:20:09;58.08;;;24.80;;
32613;SDS011;19031;51.400;6.770;2024-01-11T00:22:35;56.15;;;24.40;;
32613;SDS011;19031;51.400;6.770;2024-01-11T00:25:01;52.05;;;24.30;;
32613;SDS011;19031;51.400;6.770;2024-01-11T00:27:26;56.53;;;24.83;;
32613;SDS011;19031;51.400;6.770;2024-01-11T00:29:53;58.78;;;24.38;;
32613;SDS011;19031;51.400;6.770;2024-01-11T00:32:18;56.88;;;23.02;;
32613;SDS011;19031;51.400;6.770;2024-01-11T00:34:46;51.95;;;23.67;;
32613;SDS011;19031;51.400;6.770;2024-01-11T00:37:12;62.25;;;25.85;;
32613;SDS011;19031;51.400;6.770;2024-01-11T00:39:37;60.38;;;24.50;;
32613;SDS011;19031;51.400;6.770;2024-01-11T00:42:03;54.80;;;23.50;;
32613;SDS011;19031;51.400;6.770;2024-01-11T00:44:29;55.47;;;23.48;;
32613;SDS011;19031;51.400;6.770;2024-01-11T00:46:54;59.85;;;25.75;;
32613;SDS011;19031;51.400;6.770;2024-01-11T00:49:20;61.20;;;23.38;;
32613;SDS011;19031;51.400;6.770;2024-01-11T00:51:46;59.30;;;23.63;;
32613;SDS011;19031;51.400;6.770;2024-01-11T00:54:12;57.30;;;25.30;;
32613;SDS011;19031;51.400;6.770;2024-01-11T00:56:37;55.20;;;25.17;;
32613;SDS011;19031;51.400;6.770;2024-01-11T00:59:03;57.78;;;25.05;;
32613;SDS011;19031;51.400;6.770;2024-01-11T01:01:29;59.15;;;23.63;;
32613;SDS011;19031;51.400;6.770;2024-01-11T01:03:55;54.22;;;24.27;;
32613;SDS011;19031;51.400;6.770;2024-01-11T01:06:20;54.10;;;23.92;;
32613;SDS011;19031;51.400;6.770;2024-01-11T01:08:46;62.85;;;24.85;;
32613;SDS011;19031;51.400;6.770;2024-01-11T01:11:11;52.67;;;25.48;;
32613;SDS011;19031;51.400;6.770;2024-01-11T01:13:37;56.42;;;24.77;;
32613;SDS011;19031;51.400;6.770;2024-01-11T01:16:03;58.38;;;24.38;;
32613;SDS011;19031;51.400;6.770;2024-01-11T01:18:28;63.38;;;25.83;;
32613;SDS011;19031;51.400;6.770;2024-01-11T01:20:54;62.95;;;26.63;;
32613;SDS011;19031;51.400;6.770;2024-01-11T01:23:20;57.95;;;26.50;;
32613;SDS011;19031;51.400;6.770;2024-01-11T01:25:46;58.88;;;24.73;;
32613;SDS011;19031;51.400;6.770;2024-01-11T01:28:11;68.57;;;25.83;;
32613;SDS011;19031;51.400;6.770;2024-01-11T01:30:37;59.08;;;24.45;;
32613;SDS011;19031;51.400;6.770;2024-01-11T01:33:03;55.40;;;24.48;;
32613;SDS011;19031;51.400;6.770;2024-01-11T01:35:29;61.88;;;25.55;;
32613;SDS011;19031;51.400;6.770;2024-01-11T01:37:55;62.22;;;25.30;;
32613;SDS011;19031;51.400;6.770;2024-01-11T01:40:20;62.40;;;24.50;;
32613;SDS011;19031;51.400;6.770;2024-01-11T01:42:46;57.50;;;25.88;;
32613;SDS011;19031;51.400;6.770;2024-01-11T01:45:12;62.70;;;26.83;;
32613;SDS011;19031;51.400;6.770;2024-01-11T01:47:39;67.03;;;25.75;;
32613;SDS011;19031;51.400;6.770;2024-01-11T01:50:07;59.15;;;25.95;;
32613;SDS011;19031;51.400;6.770;2024-01-11T01:52:34;62.30;;;26.27;;
32613;SDS011;19031;51.400;6.770;2024-01-11T01:55:02;59.42;;;26.35;;
32613;SDS011;19031;51.400;6.770;2024-01-11T01:57:29;65.28;;;27.50;;
32613;SDS011;19031;51.400;6.770;2024-01-11T01:59:55;63.22;;;27.08;;
32613;SDS011;19031;51.400;6.770;2024-01-11T02:02:21;61.55;;;26.48;;
32613;SDS011;19031;51.400;6.770;2024-01-11T02:04:47;64.07;;;26.17;;
32613;SDS011;19031;51.400;6.770;2024-01-11T02:07:13;64.00;;;26.98;;
32613;SDS011;19031;51.400;6.770;2024-01-11T02:09:40;61.60;;;26.58;;
32613;SDS011;19031;51.400;6.770;2024-01-11T02:12:06;57.15;;;23.75;;
32613;SDS011;19031;51.400;6.770;2024-01-11T02:14:36;63.03;;;26.45;;
32613;SDS011;19031;51.400;6.770;2024-01-11T02:17:02;64.20;;;25.08;;
32613;SDS011;19031;51.400;6.770;2024-01-11T02:19:28;62.65;;;26.67;;
32613;SDS011;19031;51.400;6.770;2024-01-11T02:21:53;55.58;;;24.70;;
32613;SDS011;19031;51.400;6.770;2024-01-11T02:24:20;66.00;;;26.85;;
32613;SDS011;19031;51.400;6.770;2024-01-11T02:26:58;65.05;;;27.58;;
32613;SDS011;19031;51.400;6.770;2024-01-11T02:29:26;58.85;;;27.02;;
32613;SDS011;19031;51.400;6.770;2024-01-11T02:31:52;62.65;;;26.80;;
32613;SDS011;19031;51.400;6.770;2024-01-11T02:34:19;63.85;;;28.00;;
32613;SDS011;19031;51.400;6.770;2024-01-11T02:36:45;68.78;;;27.15;;
32613;SDS011;19031;51.400;6.770;2024-01-11T02:39:11;64.40;;;26.85;;
32613;SDS011;19031;51.400;6.770;2024-01-11T02:41:38;63.78;;;27.00;;
32613;SDS011;19031;51.400;6.770;2024-01-11T02:44:04;57.85;;;26.77;;
32613;SDS011;19031;51.400;6.770;2024-01-11T02:46:30;63.95;;;26.83;;
32613;SDS011;19031;51.400;6.770;2024-01-11T02:48:56;61.95;;;27.45;;
32613;SDS011;19031;51.400;6.770;2024-01-11T02:51:22;62.42;;;26.83;;
32613;SDS011;19031;51.400;6.770;2024-01-11T02:53:47;70.75;;;28.55;;
32613;SDS011;19031;51.400;6.770;2024-01-11T02:56:13;75.95;;;28.38;;
32613;SDS011;19031;51.400;6.770;2024-01-11T02:58:39;68.10;;;28.38;;
32613;SDS011;19031;51.400;6.770;2024-01-11T03:01:04;65.15;;;29.33;;
32613;SDS011;19031;51.400;6.770;2024-01-11T03:03:30;73.35;;;30.92;;
32613;SDS011;19031;51.400;6.770;2024-01-11T03:05:55;62.97;;;27.98;;
32613;SDS011;19031;51.400;6.770;2024-01-11T03:08:21;66.03;;;26.65;;
32613;SDS011;19031;51.400;6.770;2024-01-11T03:10:46;62.85;;;26.63;;
32613;SDS011;19031;51.400;6.770;2024-01-11T03:13:12;65.40;;;27.42;;
32613;SDS011;19031;51.400;6.770;2024-01-11T03:15:37;70.50;;;31.80;;
32613;SDS011;19031;51.400;6.770;2024-01-11T03:18:03;74.03;;;29.33;;
32613;SDS011;19031;51.400;6.770;2024-01-11T03:20:29;68.15;;;28.98;;
32613;SDS011;19031;51.400;6.770;2024-01-11T03:22:55;66.97;;;29.15;;
32613;SDS011;19031;51.400;6.770;2024-01-11T03:25:20;62.75;;;28.65;;
32613;SDS011;19031;51.400;6.770;2024-01-11T03:27:46;67.15;;;29.40;;
32613;SDS011;19031;51.400;6.770;2024-01-11T03:30:11;63.47;;;27.85;;
32613;SDS011;19031;51.400;6.770;2024-01-11T03:32:37;63.40;;;29.15;;
32613;SDS011;19031;51.400;6.770;2024-01-11T03:35:04;66.47;;;29.25;;
32613;SDS011;19031;51.400;6.770;2024-01-11T03:37:33;67.20;;;30.67;;
32613;SDS011;19031;51.400;6.770;2024-01-11T03:40:00;69.18;;;29.52;;
32613;SDS011;19031;51.400;6.770;2024-01-11T03:42:26;66.88;;;28.10;;
32613;SDS011;19031;51.400;6.770;2024-01-11T03:44:54;69.80;;;28.70;;
32613;SDS011;19031;51.400;6.770;2024-01-11T03:47:20;69.03;;;29.48;;
32613;SDS011;19031;51.400;6.770;2024-01-11T03:49:45;68.00;;;27.63;;
32613;SDS011;19031;51.400;6.770;2024-01-11T03:52:11;74.68;;;29.45;;
32613;SDS011;19031;51.400;6.770;2024-01-11T03:54:37;66.97;;;28.33;;
32613;SDS011;19031;51.400;6.770;2024-01-11T03:57:02;68.38;;;28.55;;
32613;SDS011;19031;51.400;6.770;2024-01-11T03:59:28;71.38;;;29.63;;
32613;SDS011;19031;51.400;6.770;2024-01-11T04:01:53;64.07;;;28.55;;
32613;SDS011;19031;51.400;6.770;2024-01-11T04:04:20;69.28;;;28.70;;
32613;SDS011;19031;51.400;6.770;2024-01-11T04:06:47;67.43;;;28.42;;
32613;SDS011;19031;51.400;6.770;2024-01-11T04:09:13;69.10;;;29.00;;
32613;SDS011;19031;51.400;6.770;2024-01-11T04:11:39;67.68;;;26.85;;
32613;SDS011;19031;51.400;6.770;2024-01-11T04:14:04;65.20;;;27.38;;
32613;SDS011;19031;51.400;6.770;2024-01-11T04:16:31;64.30;;;27.83;;
32613;SDS011;19031;51.400;6.770;2024-01-11T04:18:56;64.10;;;28.27;;
32613;SDS011;19031;51.400;6.770;2024-01-11T04:21:26;71.60;;;28.63;;
32613;SDS011;19031;51.400;6.770;2024-01-11T04:23:58;70.03;;;28.23;;
32613;SDS011;19031;51.400;6.770;2024-01-11T04:26:23;70.35;;;27.77;;
32613;SDS011;19031;51.400;6.770;2024-01-11T04:28:49;70.07;;;28.92;;
32613;SDS011;19031;51.400;6.770;2024-01-11T04:31:17;65.47;;;28.17;;
32613;SDS011;19031;51.400;6.770;2024-01-11T04:33:43;65.15;;;28.05;;
32613;SDS011;19031;51.400;6.770;2024-01-11T04:36:10;70.03;;;26.05;;
32613;SDS011;19031;51.400;6.770;2024-01-11T04:38:37;65.10;;;27.02;;
32613;SDS011;19031;51.400;6.770;2024-01-11T04:41:07;71.50;;;30.52;;
32613;SDS011;19031;51.400;6.770;2024-01-11T04:43:39;66.28;;;26.63;;
32613;SDS011;19031;51.400;6.770;2024-01-11T04:46:19;58.38;;;25.38;;
32613;SDS011;19031;51.400;6.770;2024-01-11T04:48:46;61.28;;;27.48;;
32613;SDS011;19031;51.400;6.770;2024-01-11T04:51:12;58.35;;;27.73;;
32613;SDS011;19031;51.400;6.770;2024-01-11T04:53:38;60.97;;;27.50;;
32613;SDS011;19031;51.400;6.770;2024-01-11T04:56:06;61.40;;;27.27;;
32613;SDS011;19031;51.400;6.770;2024-01-11T04:58:32;67.28;;;28.75;;
32613;SDS011;19031;51.400;6.770;2024-01-11T05:00:59;62.25;;;28.60;;
32613;SDS011;19031;51.400;6.770;2024-01-11T05:03:25;68.43;;;29.15;;
32613;SDS011;19031;51.400;6.770;2024-01-11T05:05:50;68.72;;;30.48;;
32613;SDS011;19031;51.400;6.770;2024-01-11T05:08:16;65.65;;;27.88;;
32613;SDS011;19031;51.400;6.770;2024-01-11T05:10:42;64.10;;;27.52;;
32613;SDS011;19031;51.400;6.770;2024-01-11T05:13:07;54.50;;;26.60;;
32613;SDS011;19031;51.400;6.770;2024-01-11T05:15:34;66.93;;;28.08;;
32613;SDS011;19031;51.400;6.770;2024-01-11T05:17:59;70.38;;;28.23;;
32613;SDS011;19031;51.400;6.770;2024-01-11T05:20:25;64.57;;;29.48;;
32613;SDS011;19031;51.400;6.770;2024-01-11T05:22:51;73.72;;;27.83;;
32613;SDS011;19031;51.400;6.770;2024-01-11T05:25:16;66.20;;;28.33;;
32613;SDS011;19031;51.400;6.770;2024-01-11T05:27:42;58.80;;;26.80;;
32613;SDS011;19031;51.400;6.770;2024-01-11T05:30:07;61.90;;;26.85;;
32613;SDS011;19031;51.400;6.770;2024-01-11T05:32:33;69.15;;;29.10;;
32613;SDS011;19031;51.400;6.770;2024-01-11T05:34:59;59.70;;;27.17;;
32613;SDS011;19031;51.400;6.770;2024-01-11T05:37:24;69.65;;;27.95;;
32613;SDS011;19031;51.400;6.770;2024-01-11T05:39:50;68.68;;;29.25;;
32613;SDS011;19031;51.400;6.770;2024-01-11T05:42:16;63.67;;;28.08;;
32613;SDS011;19031;51.400;6.770;2024-01-11T05:44:42;62.55;;;26.95;;
32613;SDS011;19031;51.400;6.770;2024-01-11T05:47:09;61.22;;;26.27;;
32613;SDS011;19031;51.400;6.770;2024-01-11T05:49:34;69.82;;;27.05;;
32613;SDS011;19031;51.400;6.770;2024-01-11T05:52:00;72.07;;;28.63;;
32613;SDS011;19031;51.400;6.770;2024-01-11T05:54:25;58.10;;;26.83;;
32613;SDS011;19031;51.400;6.770;2024-01-11T05:56:53;64.20;;;26.75;;
32613;SDS011;19031;51.400;6.770;2024-01-11T05:59:21;62.63;;;27.52;;
32613;SDS011;19031;51.400;6.770;2024-01-11T06:01:47;66.97;;;28.27;;
32613;SDS011;19031;51.400;6.770;2024-01-11T06:04:13;72.50;;;29.88;;
32613;SDS011;19031;51.400;6.770;2024-01-11T06:06:39;69.22;;;29.20;;
32613;SDS011;19031;51.400;6.770;2024-01-11T06:09:05;65.45;;;28.08;;
32613;SDS011;19031;51.400;6.770;2024-01-11T06:11:31;64.60;;;27.73;;
32613;SDS011;19031;51.400;6.770;2024-01-11T06:13:57;68.97;;;27.63;;
32613;SDS011;19031;51.400;6.770;2024-01-11T06:16:23;64.20;;;26.58;;
32613;SDS011;19031;51.400;6.770;2024-01-11T06:18:49;65.43;;;26.05;;
32613;SDS011;19031;51.400;6.770;2024-01-11T06:21:15;62.55;;;28.75;;
32613;SDS011;19031;51.400;6.770;2024-01-11T06:23:43;63.88;;;28.55;;
32613;SDS011;19031;51.400;6.770;2024-01-11T06:26:09;66.65;;;26.83;;
32613;SDS011;19031;51.400;6.770;2024-01-11T06:28:34;77.47;;;29.65;;
32613;SDS011;19031;51.400;6.770;2024-01-11T06:31:00;69.15;;;28.40;;
32613;SDS011;19031;51.400;6.770;2024-01-11T06:33:25;73.57;;;29.92;;
32613;SDS011;19031;51.400;6.770;2024-01-11T06:35:51;61.10;;;27.50;;
32613;SDS011;19031;51.400;6.770;2024-01-11T06:38:17;72.82;;;29.73;;
32613;SDS011;19031;51.400;6.770;2024-01-11T06:40:43;59.22;;;26.73;;
32613;SDS011;19031;51.400;6.770;2024-01-11T06:43:09;69.63;;;27.77;;
32613;SDS011;19031;51.400;6.770;2024-01-11T06:45:35;67.97;;;29.23;;
32613;SDS011;19031;51.400;6.770;2024-01-11T06:48:00;71.95;;;30.15;;
32613;SDS011;19031;51.400;6.770;2024-01-11T06:50:26;70.32;;;28.58;;
32613;SDS011;19031;51.400;6.770;2024-01-11T06:52:51;64.05;;;27.00;;
32613;SDS011;19031;51.400;6.770;2024-01-11T06:55:17;66.47;;;28.45;;
32613;SDS011;19031;51.400;6.770;2024-01-11T06:57:46;65.60;;;28.33;;
32613;SDS011;19031;51.400;6.770;2024-01-11T07:00:13;63.63;;;27.63;;
32613;SDS011;19031;51.400;6.770;2024-01-11T07:02:38;70.88;;;29.65;;
32613;SDS011;19031;51.400;6.770;2024-01-11T07:05:05;68.18;;;29.40;;
32613;SDS011;19031;51.400;6.770;2024-01-11T07:07:31;69.88;;;29.05;;
32613;SDS011;19031;51.400;6.770;2024-01-11T07:09:57;72.75;;;30.05;;
32613;SDS011;19031;51.400;6.770;2024-01-11T07:12:23;63.13;;;27.73;;
32613;SDS011;19031;51.400;6.770;2024-01-11T07:14:49;66.53;;;27.85;;
32613;SDS011;19031;51.400;6.770;2024-01-11T07:17:14;68.47;;;28.30;;
32613;SDS011;19031;51.400;6.770;2024-01-11T07:19:40;71.82;;;29.08;;
32613;SDS011;19031;51.400;6.770;2024-01-11T07:22:06;74.18;;;29.80;;
32613;SDS011;19031;51.400;6.770;2024-01-11T07:24:32;63.85;;;28.75;;
32613;SDS011;19031;51.400;6.770;2024-01-11T07:27:05;71.38;;;29.25;;
32613;SDS011;19031;51.400;6.770;2024-01-11T07:29:31;70.68;;;28.42;;
32613;SDS011;19031;51.400;6.770;2024-01-11T07:32:00;66.88;;;29.67;;
32613;SDS011;19031;51.400;6.770;2024-01-11T07:34:29;70.63;;;28.77;;
32613;SDS011;19031;51.400;6.770;2024-01-11T07:36:54;76.15;;;27.92;;
32613;SDS011;19031;51.400;6.770;2024-01-11T07:39:21;76.78;;;31.42;;
32613;SDS011;19031;51.400;6.770;2024-01-11T07:41:47;78.00;;;29.33;;
32613;SDS011;19031;51.400;6.770;2024-01-11T07:44:13;71.63;;;30.65;;
32613;SDS011;19031;51.400;6.770;2024-01-11T07:46:39;63.70;;;28.23;;
32613;SDS011;19031;51.400;6.770;2024-01-11T07:49:25;68.82;;;28.23;;
32613;SDS011;19031;51.400;6.770;2024-01-11T07:51:51;67.55;;;27.60;;
32613;SDS011;19031;51.400;6.770;2024-01-11T07:54:17;77.90;;;31.05;;
32613;SDS011;19031;51.400;6.770;2024-01-11T07:56:42;75.20;;;28.95;;
32613;SDS011;19031;51.400;6.770;2024-01-11T07:59:11;62.22;;;28.05;;
32613;SDS011;19031;51.400;6.770;2024-01-11T08:01:39;79.28;;;29.60;;
32613;SDS011;19031;51.400;6.770;2024-01-11T08:04:05;73.05;;;28.38;;
32613;SDS011;19031;51.400;6.770;2024-01-11T08:06:31;76.72;;;30.92;;
32613;SDS011;19031;51.400;6.770;2024-01-11T08:08:57;71.30;;;30.92;;
32613;SDS011;19031;51.400;6.770;2024-01-11T08:11:22;66.22;;;28.73;;
32613;SDS011;19031;51.400;6.770;2024-01-11T08:13:48;70.35;;;30.15;;
32613;SDS011;19031;51.400;6.770;2024-01-11T08:16:16;70.65;;;30.08;;
32613;SDS011;19031;51.400;6.770;2024-01-11T08:18:45;72.25;;;28.67;;
32613;SDS011;19031;51.400;6.770;2024-01-11T08:21:11;70.28;;;29.23;;
32613;SDS011;19031;51.400;6.770;2024-01-11T08:23:37;60.33;;;28.10;;
32613;SDS011;19031;51.400;6.770;2024-01-11T08:26:09;65.05;;;29.23;;
32613;SDS011;19031;51.400;6.770;2024-01-11T08:28:36;68.57;;;29.00;;
32613;SDS011;19031;51.400;6.770;2024-01-11T08:31:05;66.65;;;29.45;;
32613;SDS011;19031;51.400;6.770;2024-01-11T08:33:31;66.68;;;28.83;;
32613;SDS011;19031;51.400;6.770;2024-01-11T08:35:57;71.25;;;28.00;;
32613;SDS011;19031;51.400;6.770;2024-01-11T08:38:23;65.28;;;29.08;;
32613;SDS011;19031;51.400;6.770;2024-01-11T08:40:49;78.07;;;32.88;;
32613;SDS011;19031;51.400;6.770;2024-01-11T08:43:15;64.38;;;29.38;;
32613;SDS011;19031;51.400;6.770;2024-01-11T08:45:40;70.57;;;29.02;;
32613;SDS011;19031;51.400;6.770;2024-01-11T08:48:08;67.68;;;29.13;;
32613;SDS011;19031;51.400;6.770;2024-01-11T08:50:34;71.47;;;30.38;;
32613;SDS011;19031;51.400;6.770;2024-01-11T08:53:00;78.38;;;31.35;;
32613;SDS011;19031;51.400;6.770;2024-01-11T08:55:26;69.55;;;29.92;;
32613;SDS011;19031;51.400;6.770;2024-01-11T08:57:54;68.82;;;30.33;;
32613;SDS011;19031;51.400;6.770;2024-01-11T09:00:20;69.93;;;30.98;;
32613;SDS011;19031;51.400;6.770;2024-01-11T09:02:46;76.25;;;30.25;;
32613;SDS011;19031;51.400;6.770;2024-01-11T09:05:13;76.68;;;32.33;;
32613;SDS011;19031;51.400;6.770;2024-01-11T09:07:39;70.05;;;30.75;;
32613;SDS011;19031;51.400;6.770;2024-01-11T09:10:05;60.95;;;28.48;;
32613;SDS011;19031;51.400;6.770;2024-01-11T09:12:33;61.22;;;30.00;;
32613;SDS011;19031;51.400;6.770;2024-01-11T09:14:59;65.45;;;29.88;;
32613;SDS011;19031;51.400;6.770;2024-01-11T09:17:25;71.15;;;30.05;;
32613;SDS011;19031;51.400;6.770;2024-01-11T09:19:51;77.68;;;32.03;;
32613;SDS011;19031;51.400;6.770;2024-01-11T09:22:16;70.82;;;32.10;;
32613;SDS011;19031;51.400;6.770;2024-01-11T09:24:42;80.60;;;32.72;;
32613;SDS011;19031;51.400;6.770;2024-01-11T09:27:08;67.72;;;31.33;;
32613;SDS011;19031;51.400;6.770;2024-01-11T09:29:34;71.40;;;29.70;;
32613;SDS011;19031;51.400;6.770;2024-01-11T09:31:59;62.28;;;29.23;;
32613;SDS011;19031;51.400;6.770;2024-01-11T09:34:25;69.55;;;29.92;;
32613;SDS011;19031;51.400;6.770;2024-01-11T09:36:50;67.25;;;30.05;;
32613;SDS011;19031;51.400;6.770;2024-01-11T09:39:17;65.97;;;30.42;;
32613;SDS011;19031;51.400;6.770;2024-01-11T09:41:46;74.28;;;29.73;;
32613;SDS011;19031;51.400;6.770;2024-01-11T09:44:23;74.90;;;30.85;;
32613;SDS011;19031;51.400;6.770;2024-01-11T09:46:50;65.40;;;28.92;;
32613;SDS011;19031;51.400;6.770;2024-01-11T09:49:16;67.18;;;30.13;;
32613;SDS011;19031;51.400;6.770;2024-01-11T09:51:44;73.20;;;30.80;;
32613;SDS011;19031;51.400;6.770;2024-01-11T09:54:11;83.72;;;32.40;;
32613;SDS011;19031;51.400;6.770;2024-01-11T09:56:40;74.15;;;32.20;;
32613;SDS011;19031;51.400;6.770;2024-01-11T09:59:08;73.95;;;30.40;;
32613;SDS011;19031;51.400;6.770;2024-01-11T10:01:34;73.97;;;31.27;;
32613;SDS011;19031;51.400;6.770;2024-01-11T10:04:00;73.70;;;30.23;;
32613;SDS011;19031;51.400;6.770;2024-01-11T10:06:28;72.78;;;32.42;;
32613;SDS011;19031;51.400;6.770;2024-01-11T10:09:03;75.38;;;30.83;;
32613;SDS011;19031;51.400;6.770;2024-01-11T10:11:28;66.25;;;30.20;;
32613;SDS011;19031;51.400;6.770;2024-01-11T10:13:57;77.63;;;31.08;;
32613;SDS011;19031;51.400;6.770;2024-01-11T10:16:24;72.10;;;29.50;;
32613;SDS011;19031;51.400;6.770;2024-01-11T10:18:49;69.22;;;29.25;;
32613;SDS011;19031;51.400;6.770;2024-01-11T10:21:19;65.22;;;27.15;;
32613;SDS011;19031;51.400;6.770;2024-01-11T10:23:44;77.43;;;31.52;;
32613;SDS011;19031;51.400;6.770;2024-01-11T10:26:10;64.80;;;29.73;;
32613;SDS011;19031;51.400;6.770;2024-01-11T10:28:35;65.25;;;30.40;;
32613;SDS011;19031;51.400;6.770;2024-01-11T10:31:02;74.75;;;31.60;;
32613;SDS011;19031;51.400;6.770;2024-01-11T10:33:33;74.03;;;30.08;;
32613;SDS011;19031;51.400;6.770;2024-01-11T10:35:59;65.60;;;28.98;;
32613;SDS011;19031;51.400;6.770;2024-01-11T10:38:25;67.45;;;29.55;;
32613;SDS011;19031;51.400;6.770;2024-01-11T10:40:51;69.13;;;28.42;;
32613;SDS011;19031;51.400;6.770;2024-01-11T10:43:21;63.67;;;28.77;;
32613;SDS011;19031;51.400;6.770;2024-01-11T10:45:50;55.50;;;26.73;;
32613;SDS011;19031;51.400;6.770;2024-01-11T10:48:21;64.93;;;29.85;;
32613;SDS011;19031;51.400;6.770;2024-01-11T10:50:51;59.42;;;28.65;;
32613;SDS011;19031;51.400;6.770;2024-01-11T10:56:07;61.20;;;27.63;;
32613;SDS011;19031;51.400;6.770;2024-01-11T10:58:34;64.15;;;28.40;;
32613;SDS011;19031;51.400;6.770;2024-01-11T11:01:00;65.68;;;27.90;;
32613;SDS011;19031;51.400;6.770;2024-01-11T11:03:29;59.63;;;28.27;;
32613;SDS011;19031;51.400;6.770;2024-01-11T11:05:56;56.33;;;27.08;;
32613;SDS011;19031;51.400;6.770;2024-01-11T11:08:23;70.65;;;28.83;;
32613;SDS011;19031;51.400;6.770;2024-01-11T11:10:51;61.80;;;27.17;;
32613;SDS011;19031;51.400;6.770;2024-01-11T11:13:21;56.88;;;26.83;;
32613;SDS011;19031;51.400;6.770;2024-01-11T11:15:47;54.42;;;27.33;;
32613;SDS011;19031;51.400;6.770;2024-01-11T11:18:16;60.33;;;27.17;;
32613;SDS011;19031;51.400;6.770;2024-01-11T11:20:43;53.35;;;26.75;;
32613;SDS011;19031;51.400;6.770;2024-01-11T11:23:10;60.25;;;27.55;;
32613;SDS011;19031;51.400;6.770;2024-01-11T11:25:41;66.50;;;27.73;;
32613;SDS011;19031;51.400;6.770;2024-01-11T11:28:08;58.47;;;25.73;;
32613;SDS011;19031;51.400;6.770;2024-01-11T11:30:37;52.28;;;24.48;;
32613;SDS011;19031;51.400;6.770;2024-01-11T11:33:23;61.83;;;27.10;;
32613;SDS011;19031;51.400;6.770;2024-01-11T11:35:53;57.05;;;24.67;;
32613;SDS011;19031;51.400;6.770;2024-01-11T11:38:23;56.17;;;25.92;;
32613;SDS011;19031;51.400;6.770;2024-01-11T11:40:52;59.22;;;24.05;;
32613;SDS011;19031;51.400;6.770;2024-01-11T11:43:22;72.38;;;26.27;;
32613;SDS011;19031;51.400;6.770;2024-01-11T11:45:49;57.80;;;25.83;;
32613;SDS011;19031;51.400;6.770;2024-01-11T11:53:32;50.67;;;23.73;;
32613;SDS011;19031;51.400;6.770;2024-01-11T11:55:58;52.20;;;23.67;;
32613;SDS011;19031;51.400;6.770;2024-01-11T11:58:25;44.00;;;22.52;;
32613;SDS011;19031;51.400;6.770;2024-01-11T12:00:52;49.38;;;23.17;;
32613;SDS011;19031;51.400;6.770;2024-01-11T12:03:19;56.90;;;24.77;;
32613;SDS011;19031;51.400;6.770;2024-01-11T12:05:45;53.95;;;24.05;;
32613;SDS011;19031;51.400;6.770;2024-01-11T12:08:11;52.47;;;24.38;;
32613;SDS011;19031;51.400;6.770;2024-01-11T12:10:36;64.85;;;25.20;;
32613;SDS011;19031;51.400;6.770;2024-01-11T12:13:02;57.22;;;24.48;;
32613;SDS011;19031;51.400;6.770;2024-01-11T12:15:27;50.30;;;22.60;;
32613;SDS011;19031;51.400;6.770;2024-01-11T12:17:57;49.13;;;23.27;;
32613;SDS011;19031;51.400;6.770;2024-01-11T12:20:23;50.47;;;20.80;;
32613;SDS011;19031;51.400;6.770;2024-01-11T12:22:49;53.38;;;24.58;;
32613;SDS011;19031;51.400;6.770;2024-01-11T12:25:14;48.38;;;21.73;;
32613;SDS011;19031;51.400;6.770;2024-01-11T12:27:40;46.72;;;21.15;;
32613;SDS011;19031;51.400;6.770;2024-01-11T12:30:07;51.35;;;21.98;;
32613;SDS011;19031;51.400;6.770;2024-01-11T12:32:36;56.75;;;24.08;;
32613;SDS011;19031;51.400;6.770;2024-01-11T12:35:01;58.78;;;24.30;;
32613;SDS011;19031;51.400;6.770;2024-01-11T12:37:29;56.10;;;23.58;;
32613;SDS011;19031;51.400;6.770;2024-01-11T12:39:58;51.17;;;23.40;;
32613;SDS011;19031;51.400;6.770;2024-01-11T12:42:26;65.22;;;24.23;;
32613;SDS011;19031;51.400;6.770;2024-01-11T12:44:52;48.65;;;22.13;;
32613;SDS011;19031;51.400;6.770;2024-01-11T12:47:18;52.72;;;23.85;;
32613;SDS011;19031;51.400;6.770;2024-01-11T12:49:44;47.15;;;21.05;;
32613;SDS011;19031;51.400;6.770;2024-01-11T12:52:17;44.70;;;22.45;;
32613;SDS011;19031;51.400;6.770;2024-01-11T12:54:44;47.33;;;22.83;;
32613;SDS011;19031;51.400;6.770;2024-01-11T12:57:11;51.35;;;21.52;;
32613;SDS011;19031;51.400;6.770;2024-01-11T12:59:37;53.15;;;22.15;;
32613;SDS011;19031;51.400;6.770;2024-01-11T13:02:05;51.03;;;23.00;;
32613;SDS011;19031;51.400;6.770;2024-01-11T13:04:31;56.53;;;22.48;;
32613;SDS011;19031;51.400;6.770;2024-01-11T13:06:59;42.90;;;21.70;;
32613;SDS011;19031;51.400;6.770;2024-01-11T13:09:25;47.72;;;21.90;;
32613;SDS011;19031;51.400;6.770;2024-01-11T13:11:50;53.10;;;21.52;;
32613;SDS011;19031;51.400;6.770;2024-01-11T13:14:16;48.42;;;21.48;;
32613;SDS011;19031;51.400;6.770;2024-01-11T13:16:44;38.92;;;20.60;;
32613;SDS011;19031;51.400;6.770;2024-01-11T13:19:11;44.42;;;19.95;;
32613;SDS011;19031;51.400;6.770;2024-01-11T13:21:37;39.38;;;18.92;;
32613;SDS011;19031;51.400;6.770;2024-01-11T13:24:03;53.33;;;20.58;;
32613;SDS011;19031;51.400;6.770;2024-01-11T13:26:29;42.05;;;18.88;;
32613;SDS011;19031;51.400;6.770;2024-01-11T13:28:54;41.90;;;18.00;;
32613;SDS011;19031;51.400;6.770;2024-01-11T13:31:20;42.00;;;19.17;;
32613;SDS011;19031;51.400;6.770;2024-01-11T13:33:46;38.47;;;16.25;;
32613;SDS011;19031;51.400;6.770;2024-01-11T13:36:11;42.67;;;18.80;;
32613;SDS011;19031;51.400;6.770;2024-01-11T13:38:37;33.85;;;15.88;;
32613;SDS011;19031;51.400;6.770;2024-01-11T13:41:03;37.47;;;16.52;;
32613;SDS011;19031;51.400;6.770;2024-01-11T13:43:30;45.13;;;16.80;;
32613;SDS011;19031;51.400;6.770;2024-01-11T13:45:55;36.55;;;16.63;;
32613;SDS011;19031;51.400;6.770;2024-01-11T13:48:21;36.88;;;16.83;;
32613;SDS011;19031;51.400;6.770;2024-01-11T13:50:47;37.42;;;15.85;;
32613;SDS011;19031;51.400;6.770;2024-01-11T13:53:12;33.40;;;15.10;;
32613;SDS011;19031;51.400;6.770;2024-01-11T13:55:38;33.13;;;16.25;;
32613;SDS011;19031;51.400;6.770;2024-01-11T13:58:04;32.78;;;16.15;;
32613;SDS011;19031;51.400;6.770;2024-01-11T14:00:30;41.60;;;17.45;;
32613;SDS011;19031;51.400;6.770;2024-01-11T14:02:56;37.53;;;17.02;;
32613;SDS011;19031;51.400;6.770;2024-01-11T14:05:22;40.30;;;16.52;;
32613;SDS011;19031;51.400;6.770;2024-01-11T14:07:48;32.03;;;16.33;;
32613;SDS011;19031;51.400;6.770;2024-01-11T14:10:19;33.95;;;15.77;;
32613;SDS011;19031;51.400;6.770;2024-01-11T14:12:44;38.03;;;15.82;;
32613;SDS011;19031;51.400;6.770;2024-01-11T14:15:10;37.28;;;15.55;;
32613;SDS011;19031;51.400;6.770;2024-01-11T14:17:36;35.40;;;14.85;;
32613;SDS011;19031;51.400;6.770;2024-01-11T14:20:03;32.40;;;14.77;;
32613;SDS011;19031;51.400;6.770;2024-01-11T14:22:31;36.15;;;14.15;;
32613;SDS011;19031;51.400;6.770;2024-01-11T14:24:56;35.17;;;17.08;;